EWR weather

Newark Liberty International Airport
Newark, New Jersey, United States

Public forecast

Using degrees Fahrenheit for public forecast. Weather courtesy of forecast.io.

METAR (pilot weather report)

Retrieved 2017/02/24 06:51 UTC (1 hour ago):

KEWR 240651Z 20006KT 10SM FEW090 SCT250 13/10 A2990

TAF (pilot weather forecast)

Retrieved 2017/02/24 06:24 UTC (2 hours ago):

TAF KEWR 240520Z 2406/2512 VRB04KT P6SM BKN070 FM240900 VRB04KT P6SM SCT005 SCT050 FM241300 19007KT P6SM SCT035 SCT080 FM242000 17008KT P6SM SCT035 SCT250 FM250200 18005KT P6SM SCT015 SCT035 BKN250 FM250600 15005KT P6SM BKN010